Time;durP1;ratioP1;P1;durP2;ratioP2;P2;SDS_P1;SDS_P2;PMS_P1;PMS_P2;Temp;Humidity;BMP_temperature;BMP_pressure;BME280_temperature;BME280_humidity;BME280_pressure;Samples;Min_cycle;Max_cycle;Signal;HPM_P1;HPM_P2
2024/01/07 00:00:24;;;;;;;25.10;11.70;;;;;;;14.22;55.07;100771.48;107053;1264;25372;-53
2024/01/07 00:02:51;;;;;;;24.30;11.10;;;;;;;14.19;54.94;100772.65;106858;1267;25402;-53
2024/01/07 00:05:18;;;;;;;28.40;10.70;;;;;;;14.16;54.74;100775.54;107201;1264;25315;-53
2024/01/07 00:07:45;;;;;;;14.10;8.40;;;;;;;14.13;54.66;100770.58;107115;1253;25337;-53
2024/01/07 00:10:13;;;;;;;27.60;11.10;;;;;;;14.09;54.58;100773.52;107189;1258;25445;-53
2024/01/07 00:12:40;;;;;;;32.60;11.70;;;;;;;14.05;54.44;100771.94;106380;1257;1002905;-53
2024/01/07 00:15:08;;;;;;;36.00;10.80;;;;;;;14.02;54.18;100771.52;107097;1257;25484;-53
2024/01/07 00:17:35;;;;;;;28.20;12.00;;;;;;;13.98;54.07;100769.23;107158;1257;24198;-52
2024/01/07 00:20:02;;;;;;;37.40;13.30;;;;;;;13.93;53.71;100777.06;106842;1258;25411;-52
2024/01/07 00:22:29;;;;;;;30.20;10.40;;;;;;;13.89;53.54;100780.52;107084;1257;25356;-52
2024/01/07 00:24:56;;;;;;;33.40;12.00;;;;;;;13.84;53.54;100779.98;107168;1260;25287;-52
2024/01/07 00:27:23;;;;;;;38.50;12.90;;;;;;;13.80;53.46;100778.21;107311;1265;25356;-52
2024/01/07 00:29:50;;;;;;;44.70;14.20;;;;;;;13.76;53.44;100777.15;107091;1258;25484;-52
2024/01/07 00:32:17;;;;;;;35.30;14.10;;;;;;;13.72;53.50;100776.41;107090;1258;25346;-52
2024/01/07 00:34:45;;;;;;;46.10;14.80;;;;;;;13.69;53.54;100778.95;107107;1254;25405;-52
2024/01/07 00:37:12;;;;;;;41.50;15.00;;;;;;;13.67;53.55;100777.98;106866;1260;25372;-52
2024/01/07 00:39:39;;;;;;;36.60;13.50;;;;;;;13.63;53.70;100774.62;106835;1267;25363;-52
2024/01/07 00:42:06;;;;;;;35.10;12.50;;;;;;;13.62;53.75;100778.16;106024;1273;1003444;-52
2024/01/07 00:44:33;;;;;;;36.20;13.60;;;;;;;13.60;53.72;100770.58;107071;1266;25372;-52
2024/01/07 00:47:00;;;;;;;32.90;13.90;;;;;;;13.57;53.75;100764.55;107068;1257;25375;-52
2024/01/07 00:49:27;;;;;;;39.20;14.20;;;;;;;13.55;53.80;100766.54;107118;1260;24200;-52
2024/01/07 00:51:55;;;;;;;26.30;11.20;;;;;;;13.53;53.79;100759.99;107134;1263;22530;-53
2024/01/07 00:54:22;;;;;;;20.00;11.50;;;;;;;13.49;53.67;100760.12;106742;1275;25359;-52
2024/01/07 00:56:50;;;;;;;27.70;12.40;;;;;;;13.44;53.60;100760.80;106875;1260;25337;-52
2024/01/07 00:59:17;;;;;;;27.80;11.60;;;;;;;13.40;53.43;100757.82;107122;1267;25375;-52
2024/01/07 01:01:44;;;;;;;26.10;12.80;;;;;;;13.37;53.35;100761.23;107138;1262;25356;-52
2024/01/07 01:04:11;;;;;;;30.80;13.80;;;;;;;13.34;53.33;100767.61;106946;1258;25449;-52
2024/01/07 01:06:38;;;;;;;22.70;11.60;;;;;;;13.31;53.20;100771.53;107144;1251;25442;-52
2024/01/07 01:09:05;;;;;;;33.40;13.40;;;;;;;13.28;53.12;100769.35;106823;1275;25446;-52
2024/01/07 01:11:32;;;;;;;31.70;13.00;;;;;;;13.25;53.11;100766.33;107117;1258;25328;-52
2024/01/07 01:13:59;;;;;;;25.70;12.30;;;;;;;13.23;53.05;100765.18;106902;1261;25478;-52
2024/01/07 01:16:26;;;;;;;18.50;10.40;;;;;;;13.21;52.91;100760.91;106856;1267;25385;-52
2024/01/07 01:18:53;;;;;;;22.00;11.50;;;;;;;13.17;52.68;100757.88;107155;1264;22884;-52
2024/01/07 01:21:21;;;;;;;27.60;12.80;;;;;;;13.13;52.74;100752.80;107069;1257;25394;-52
2024/01/07 01:23:48;;;;;;;27.00;13.00;;;;;;;13.08;53.00;100753.27;106839;1274;25348;-52
2024/01/07 01:26:15;;;;;;;26.90;13.80;;;;;;;13.04;53.14;100757.05;107062;1260;22644;-52
2024/01/07 01:28:42;;;;;;;29.90;13.90;;;;;;;13.02;53.15;100754.48;107165;1254;25439;-52
2024/01/07 01:31:13;;;;;;;23.00;12.20;;;;;;;12.96;53.46;100752.91;107136;1257;25372;-52
2024/01/07 01:33:41;;;;;;;24.00;11.20;;;;;;;12.88;53.78;100746.93;107026;1254;24621;-52
2024/01/07 01:36:09;;;;;;;17.40;9.40;;;;;;;12.75;53.95;100741.25;107051;1251;23280;-52
2024/01/07 01:38:35;;;;;;;16.60;9.10;;;;;;;12.59;54.05;100735.11;106999;1264;23138;-52
2024/01/07 01:41:03;;;;;;;21.40;9.10;;;;;;;12.44;54.15;100729.32;106798;1254;25349;-52
2024/01/07 01:43:30;;;;;;;14.90;9.10;;;;;;;12.32;54.42;100722.90;106624;1259;25350;-52
2024/01/07 01:45:58;;;;;;;16.70;9.40;;;;;;;12.24;54.80;100723.46;106831;1254;25379;-52
2024/01/07 01:48:26;;;;;;;18.30;10.30;;;;;;;12.19;54.97;100740.98;106717;1257;25337;-52
2024/01/07 01:50:54;;;;;;;19.00;10.30;;;;;;;12.18;55.20;100749.04;106853;1263;22550;-52
2024/01/07 01:53:21;;;;;;;14.90;8.90;;;;;;;12.21;55.27;100753.98;106798;1269;25398;-52
2024/01/07 01:55:48;;;;;;;15.10;8.30;;;;;;;12.26;55.14;100754.02;106848;1263;25424;-52
2024/01/07 01:58:15;;;;;;;13.60;8.00;;;;;;;12.31;54.97;100754.94;106788;1260;22576;-52
2024/01/07 02:00:46;;;;;;;12.30;7.50;;;;;;;12.35;54.67;100757.09;106603;1274;25338;-52
2024/01/07 02:03:13;;;;;;;11.90;7.20;;;;;;;12.39;54.39;100757.33;106531;1264;24215;-52
2024/01/07 02:05:40;;;;;;;11.00;8.20;;;;;;;12.41;54.35;100751.67;106632;1264;25577;-52
2024/01/07 02:08:07;;;;;;;6.70;6.10;;;;;;;12.43;54.32;100746.40;106748;1273;23955;-52
2024/01/07 02:10:36;;;;;;;8.90;6.50;;;;;;;12.44;54.26;100744.96;106651;1264;25554;-53
2024/01/07 02:13:05;;;;;;;19.10;6.10;;;;;;;12.46;54.18;100734.15;105970;1259;1004036;-52
2024/01/07 02:15:33;;;;;;;10.20;7.40;;;;;;;12.46;54.25;100732.91;106827;1260;25328;-52
2024/01/07 02:18:01;;;;;;;12.80;7.80;;;;;;;12.44;54.34;100732.10;106835;1260;25382;-52
2024/01/07 02:20:28;;;;;;;12.40;8.80;;;;;;;12.38;54.46;100726.88;106460;1273;25343;-52
2024/01/07 02:22:57;;;;;;;15.70;9.10;;;;;;;12.31;54.72;100722.21;106783;1270;25333;-52
2024/01/07 02:25:25;;;;;;;14.90;9.50;;;;;;;12.26;54.89;100723.40;106789;1261;25802;-52
2024/01/07 02:27:52;;;;;;;17.70;9.30;;;;;;;12.27;55.07;100727.55;106834;1260;25792;-52
2024/01/07 02:30:19;;;;;;;14.60;8.20;;;;;;;12.31;55.00;100728.67;106851;1260;25329;-52
2024/01/07 02:32:47;;;;;;;16.90;8.20;;;;;;;12.35;54.97;100725.59;106150;1261;1003753;-52
2024/01/07 02:35:14;;;;;;;18.20;9.30;;;;;;;12.39;54.82;100726.69;106826;1260;25477;-52
2024/01/07 02:37:41;;;;;;;17.50;9.40;;;;;;;12.42;54.84;100724.33;107045;1254;25363;-52
2024/01/07 02:40:09;;;;;;;18.00;9.20;;;;;;;12.45;54.96;100729.45;107316;1257;25401;-52
2024/01/07 02:42:36;;;;;;;23.80;9.80;;;;;;;12.49;55.11;100726.53;107182;1258;22668;-52
2024/01/07 02:45:04;;;;;;;20.10;9.70;;;;;;;12.54;55.04;100723.95;106949;1269;25328;-52
2024/01/07 02:47:33;;;;;;;19.50;9.90;;;;;;;12.56;55.24;100723.91;106176;1260;586733;-52
2024/01/07 02:50:01;;;;;;;18.30;10.40;;;;;;;12.53;55.27;100721.57;106395;1257;1003615;-52
2024/01/07 02:52:28;;;;;;;17.00;9.00;;;;;;;12.45;55.51;100716.05;107099;1253;25340;-52
2024/01/07 02:54:55;;;;;;;17.90;8.60;;;;;;;12.39;55.87;100723.02;107289;1256;22534;-52
2024/01/07 02:57:22;;;;;;;16.90;6.70;;;;;;;12.35;56.16;100723.33;107074;1257;24237;-52
2024/01/07 02:59:50;;;;;;;15.00;6.70;;;;;;;12.32;56.40;100721.15;106399;1251;1004431;-52
2024/01/07 03:02:18;;;;;;;17.60;9.20;;;;;;;12.30;56.52;100721.38;107097;1256;25471;-52
2024/01/07 03:04:45;;;;;;;19.90;11.90;;;;;;;12.28;56.63;100730.16;107110;1256;24241;-52
2024/01/07 03:07:12;;;;;;;22.10;13.10;;;;;;;12.27;56.74;100736.79;107267;1257;25340;-52
2024/01/07 03:09:39;;;;;;;20.40;12.40;;;;;;;12.26;56.78;100732.30;107136;1260;25353;-52
2024/01/07 03:12:06;;;;;;;13.50;8.40;;;;;;;12.24;56.69;100728.69;106417;1256;1003468;-52
2024/01/07 03:14:34;;;;;;;10.80;6.10;;;;;;;12.19;56.83;100724.83;107103;1256;25341;-52
2024/01/07 03:17:00;;;;;;;10.60;5.30;;;;;;;12.14;57.08;100727.76;107096;1254;25500;-52
2024/01/07 03:19:28;;;;;;;14.60;5.10;;;;;;;12.13;57.31;100730.40;107100;1257;25346;-52
2024/01/07 03:21:55;;;;;;;8.90;4.70;;;;;;;12.14;57.36;100733.48;107125;1257;25395;-52
2024/01/07 03:24:22;;;;;;;7.90;3.60;;;;;;;12.12;57.35;100731.63;106992;1264;22549;-52
2024/01/07 03:26:50;;;;;;;7.60;4.30;;;;;;;12.11;57.49;100730.98;107124;1254;25325;-52
2024/01/07 03:29:17;;;;;;;8.50;3.90;;;;;;;12.08;57.53;100738.55;107044;1257;25356;-52
2024/01/07 03:31:43;;;;;;;10.90;3.70;;;;;;;12.05;57.74;100742.96;107054;1254;23113;-52
2024/01/07 03:34:11;;;;;;;8.00;3.20;;;;;;;12.05;57.87;100747.67;107156;1251;24201;-52
2024/01/07 03:36:38;;;;;;;7.10;3.30;;;;;;;12.04;57.75;100752.40;106934;1269;25325;-52
2024/01/07 03:39:06;;;;;;;7.20;3.60;;;;;;;12.02;57.84;100750.52;107104;1257;25484;-52
2024/01/07 03:41:33;;;;;;;5.00;2.90;;;;;;;12.03;57.96;100745.99;107174;1258;25341;-52
2024/01/07 03:44:00;;;;;;;6.70;3.50;;;;;;;12.01;57.90;100736.83;107056;1257;25475;-52
2024/01/07 03:46:27;;;;;;;5.40;3.10;;;;;;;11.99;58.04;100735.49;106374;1256;1003645;-52
2024/01/07 03:48:54;;;;;;;5.70;3.40;;;;;;;11.96;58.06;100735.39;107085;1265;25326;-52
2024/01/07 03:51:22;;;;;;;5.10;3.70;;;;;;;11.94;58.18;100733.22;107074;1257;25343;-52
2024/01/07 03:53:49;;;;;;;5.30;3.70;;;;;;;11.92;58.26;100729.61;107107;1258;25488;-52
2024/01/07 03:56:16;;;;;;;7.20;3.50;;;;;;;11.90;58.30;100728.45;107193;1267;25353;-52
2024/01/07 03:58:43;;;;;;;6.90;4.30;;;;;;;11.89;58.51;100724.14;106782;1275;25356;-52
2024/01/07 04:01:10;;;;;;;7.00;3.50;;;;;;;11.90;58.68;100719.25;106747;1270;25353;-52
2024/01/07 04:03:38;;;;;;;6.20;4.20;;;;;;;11.91;58.81;100711.21;107143;1261;25340;-51
2024/01/07 04:06:07;;;;;;;10.20;6.20;;;;;;;11.94;59.04;100710.63;107076;1256;22570;-51
2024/01/07 04:08:35;;;;;;;8.20;5.90;;;;;;;11.97;59.19;100713.81;107173;1250;25242;-51
2024/01/07 04:11:02;;;;;;;9.00;6.00;;;;;;;12.02;59.29;100713.70;107113;1255;25402;-51
2024/01/07 04:13:29;;;;;;;9.00;6.20;;;;;;;12.10;59.41;100710.85;107056;1257;25567;-54
2024/01/07 04:15:56;;;;;;;9.90;6.70;;;;;;;12.17;59.44;100708.20;107193;1257;25389;-53
2024/01/07 04:18:23;;;;;;;9.60;6.70;;;;;;;12.23;59.36;100711.86;106997;1264;25468;-53
2024/01/07 04:20:51;;;;;;;10.50;6.90;;;;;;;12.30;59.31;100708.35;106769;1260;23893;-53
2024/01/07 04:23:18;;;;;;;15.10;8.30;;;;;;;12.39;59.31;100707.38;107075;1265;25487;-53
2024/01/07 04:25:45;;;;;;;14.70;8.20;;;;;;;12.48;59.17;100709.88;107215;1257;25347;-53
2024/01/07 04:28:12;;;;;;;18.50;9.50;;;;;;;12.56;59.19;100706.31;107018;1264;25456;-52
2024/01/07 04:30:39;;;;;;;18.70;9.30;;;;;;;12.64;59.40;100707.31;107080;1257;22515;-54
2024/01/07 04:33:07;;;;;;;25.50;10.40;;;;;;;12.70;59.71;100711.45;107080;1267;24228;-53
2024/01/07 04:35:34;;;;;;;19.60;9.10;;;;;;;12.75;60.05;100712.69;106846;1257;24387;-54
2024/01/07 04:38:01;;;;;;;26.10;11.10;;;;;;;12.81;60.37;100715.98;107082;1254;25366;-54
2024/01/07 04:40:29;;;;;;;24.10;10.10;;;;;;;12.86;60.61;100713.20;106853;1257;25372;-54
2024/01/07 04:42:56;;;;;;;25.90;11.10;;;;;;;12.92;60.82;100707.63;107031;1253;25347;-53
2024/01/07 04:45:23;;;;;;;33.40;12.20;;;;;;;12.93;61.09;100708.82;106271;1254;1002874;-53
2024/01/07 04:47:51;;;;;;;21.20;10.10;;;;;;;13.03;61.15;100711.98;106793;1257;25382;-53
2024/01/07 04:50:19;;;;;;;20.90;9.70;;;;;;;13.09;61.26;100703.80;106822;1254;25353;-53
2024/01/07 04:52:47;;;;;;;27.40;9.80;;;;;;;13.14;61.33;100698.92;106830;1256;24194;-53
2024/01/07 04:55:14;;;;;;;19.30;9.30;;;;;;;13.19;61.50;100701.73;106778;1255;25487;-53
2024/01/07 04:57:41;;;;;;;21.90;11.00;;;;;;;13.24;61.60;100704.53;107006;1253;25356;-53
2024/01/07 05:00:09;;;;;;;27.30;13.30;;;;;;;13.28;61.62;100706.47;106819;1267;24209;-53
2024/01/07 05:02:36;;;;;;;27.80;13.70;;;;;;;13.31;61.57;100713.70;107088;1253;25288;-53
2024/01/07 05:05:04;;;;;;;35.80;16.10;;;;;;;13.34;61.66;100707.86;106884;1264;25405;-53
2024/01/07 05:07:31;;;;;;;29.60;14.10;;;;;;;13.38;61.73;100702.82;106773;1261;22542;-53
2024/01/07 05:09:58;;;;;;;26.10;12.80;;;;;;;13.41;61.58;100693.14;107226;1257;25347;-53
2024/01/07 05:12:26;;;;;;;27.50;11.60;;;;;;;13.42;61.65;100696.75;106802;1259;25353;-53
2024/01/07 05:14:53;;;;;;;28.60;13.00;;;;;;;13.43;61.72;100695.85;106805;1258;25519;-53
2024/01/07 05:17:20;;;;;;;38.40;17.30;;;;;;;13.45;61.76;100697.36;106862;1259;25442;-53
2024/01/07 05:19:47;;;;;;;50.20;20.40;;;;;;;13.46;61.80;100706.19;107172;1255;25347;-52
2024/01/07 05:22:14;;;;;;;38.70;15.10;;;;;;;13.49;61.81;100710.98;107136;1259;25343;-52
2024/01/07 05:24:42;;;;;;;32.90;12.30;;;;;;;13.53;61.77;100709.63;107054;1262;25440;-53
2024/01/07 05:27:09;;;;;;;29.40;11.60;;;;;;;13.55;61.77;100709.54;107061;1257;25434;-52
2024/01/07 05:29:36;;;;;;;31.60;10.10;;;;;;;13.56;61.67;100711.41;107149;1257;25353;-52
2024/01/07 05:32:04;;;;;;;21.30;9.60;;;;;;;13.57;61.67;100713.83;107170;1266;25424;-52
2024/01/07 05:34:31;;;;;;;40.40;13.60;;;;;;;13.57;61.67;100714.53;107022;1260;22515;-52
2024/01/07 05:36:59;;;;;;;38.80;15.70;;;;;;;13.58;61.77;100715.04;107103;1257;24243;-52
2024/01/07 05:39:26;;;;;;;41.80;19.60;;;;;;;13.59;61.71;100720.22;106826;1264;25353;-52
2024/01/07 05:41:53;;;;;;;39.20;16.00;;;;;;;13.60;61.85;100722.42;107051;1254;25506;-52
2024/01/07 05:44:20;;;;;;;24.40;11.20;;;;;;;13.63;61.86;100712.20;106845;1257;25338;-52
2024/01/07 05:46:47;;;;;;;28.20;10.30;;;;;;;13.65;61.85;100708.16;106911;1260;25353;-52
2024/01/07 05:49:14;;;;;;;21.60;8.30;;;;;;;13.66;61.81;100703.58;106833;1259;25452;-52
2024/01/07 05:51:41;;;;;;;19.80;7.10;;;;;;;13.67;61.88;100707.72;107168;1257;25347;-52
2024/01/07 05:54:08;;;;;;;13.90;6.30;;;;;;;13.69;61.95;100712.89;107107;1257;25487;-52
2024/01/07 05:56:40;;;;;;;21.60;7.80;;;;;;;13.71;61.99;100711.75;107171;1258;25356;-52
2024/01/07 05:59:07;;;;;;;21.00;7.40;;;;;;;13.74;61.91;100713.95;107172;1257;23228;-53
2024/01/07 06:01:35;;;;;;;16.30;7.20;;;;;;;13.76;61.98;100713.67;107129;1264;25347;-52
2024/01/07 06:04:02;;;;;;;30.10;8.00;;;;;;;13.78;61.95;100712.90;106842;1260;25394;-52
2024/01/07 06:06:31;;;;;;;20.20;6.80;;;;;;;13.81;62.04;100712.13;106915;1256;22530;-52
2024/01/07 06:08:59;;;;;;;18.20;6.70;;;;;;;13.85;61.98;100713.54;107192;1254;22637;-52
2024/01/07 06:11:26;;;;;;;23.90;7.80;;;;;;;13.89;62.00;100710.95;106883;1267;23377;-53
2024/01/07 06:13:53;;;;;;;17.00;6.50;;;;;;;13.92;61.87;100707.71;107067;1263;22580;-52
2024/01/07 06:16:20;;;;;;;15.80;6.10;;;;;;;13.94;61.81;100697.49;106982;1256;25381;-52
2024/01/07 06:18:48;;;;;;;15.60;6.20;;;;;;;13.96;61.72;100693.42;106905;1259;25399;-52
2024/01/07 06:21:16;;;;;;;16.80;6.20;;;;;;;13.96;61.64;100696.73;107117;1255;24202;-52
2024/01/07 06:23:43;;;;;;;15.40;7.60;;;;;;;13.97;61.62;100692.36;106903;1259;25366;-52
2024/01/07 06:26:10;;;;;;;20.50;10.40;;;;;;;13.95;61.48;100678.45;107133;1257;25353;-52
2024/01/07 06:28:37;;;;;;;22.30;10.50;;;;;;;13.94;61.58;100668.21;107021;1257;25455;-52
2024/01/07 06:31:04;;;;;;;21.10;9.80;;;;;;;13.93;61.62;100668.25;106587;1263;25328;-52
2024/01/07 06:33:32;;;;;;;15.50;7.40;;;;;;;13.93;61.73;100667.02;106545;1258;24209;-52
2024/01/07 06:36:00;;;;;;;16.50;6.70;;;;;;;13.93;61.70;100659.56;106936;1257;25325;-53
2024/01/07 06:38:27;;;;;;;13.50;6.50;;;;;;;13.91;61.79;100649.11;106701;1257;22559;-52
2024/01/07 06:40:54;;;;;;;14.00;5.50;;;;;;;13.92;61.80;100634.27;106560;1259;25353;-52
2024/01/07 06:43:30;;;;;;;13.90;6.00;;;;;;;13.93;61.83;100619.77;105664;1256;1003085;-52
2024/01/07 06:45:57;;;;;;;11.80;5.60;;;;;;;13.94;61.87;100619.38;106829;1264;25388;-52
2024/01/07 06:48:24;;;;;;;15.60;6.50;;;;;;;13.96;61.98;100622.27;106948;1265;24192;-52
2024/01/07 06:50:52;;;;;;;13.40;5.90;;;;;;;13.97;62.09;100618.95;107066;1254;25338;-52
2024/01/07 06:53:18;;;;;;;19.60;6.50;;;;;;;14.01;62.15;100619.14;106856;1260;22531;-52
2024/01/07 06:55:47;;;;;;;17.20;6.50;;;;;;;14.04;62.08;100620.91;107186;1266;25401;-52
2024/01/07 06:58:14;;;;;;;16.40;6.70;;;;;;;14.07;62.07;100617.13;107063;1257;25500;-52
2024/01/07 07:00:41;;;;;;;14.90;6.30;;;;;;;14.10;61.91;100615.09;106941;1272;25343;-52
2024/01/07 07:03:09;;;;;;;16.10;6.90;;;;;;;14.11;61.93;100610.70;106847;1261;25414;-52
2024/01/07 07:05:36;;;;;;;17.90;7.10;;;;;;;14.13;61.80;100615.15;107098;1253;25407;-52
2024/01/07 07:08:03;;;;;;;15.50;7.20;;;;;;;14.15;61.82;100608.79;106839;1261;25427;-53
2024/01/07 07:10:31;;;;;;;21.80;8.00;;;;;;;14.18;61.86;100607.64;107105;1253;22521;-52
2024/01/07 07:12:58;;;;;;;20.10;7.00;;;;;;;14.22;61.89;100604.50;107172;1254;25450;-52
2024/01/07 07:15:27;;;;;;;21.70;7.90;;;;;;;14.27;61.76;100601.70;107192;1254;25334;-52
2024/01/07 07:17:56;;;;;;;20.50;7.80;;;;;;;14.30;61.66;100604.21;107139;1256;25366;-52
2024/01/07 07:20:23;;;;;;;24.40;6.50;;;;;;;14.31;61.52;100599.98;106788;1254;25484;-51
2024/01/07 07:22:50;;;;;;;27.10;7.90;;;;;;;14.32;61.57;100607.98;106642;1272;24216;-52
2024/01/07 07:25:17;;;;;;;30.60;8.40;;;;;;;14.35;61.53;100618.48;106894;1258;25350;-52
2024/01/07 07:27:44;;;;;;;37.00;10.70;;;;;;;14.37;61.54;100622.42;106876;1255;25242;-51
2024/01/07 07:30:11;;;;;;;27.60;8.90;;;;;;;14.40;61.53;100631.91;106894;1254;25328;-51
2024/01/07 07:32:41;;;;;;;23.00;7.60;;;;;;;14.43;61.57;100632.13;106990;1263;25487;-51
2024/01/07 07:35:08;;;;;;;25.50;8.40;;;;;;;14.47;61.44;100640.00;107113;1250;23920;-51
2024/01/07 07:37:35;;;;;;;25.70;7.10;;;;;;;14.50;61.40;100647.42;107185;1258;25505;-52
2024/01/07 07:40:02;;;;;;;15.80;6.30;;;;;;;14.54;61.28;100650.04;107187;1257;25353;-52
2024/01/07 07:42:30;;;;;;;22.40;6.20;;;;;;;14.59;61.13;100651.76;106878;1256;25453;-52
2024/01/07 07:44:58;;;;;;;28.20;6.90;;;;;;;14.62;60.87;100649.37;107066;1264;25414;-51
2024/01/07 07:47:25;;;;;;;23.10;7.30;;;;;;;14.61;60.66;100644.85;107133;1256;25429;-51
2024/01/07 07:49:52;;;;;;;17.80;7.10;;;;;;;14.59;60.56;100644.23;107115;1257;25337;-51
2024/01/07 07:52:23;;;;;;;16.90;6.60;;;;;;;14.59;60.49;100635.36;107078;1254;25558;-51
2024/01/07 07:54:50;;;;;;;20.90;6.80;;;;;;;14.58;60.45;100635.55;107165;1258;25459;-51
2024/01/07 07:57:20;;;;;;;18.10;6.40;;;;;;;14.59;60.48;100633.79;107077;1266;25371;-51
2024/01/07 07:59:50;;;;;;;16.60;6.70;;;;;;;14.59;60.33;100635.88;107181;1258;25478;-51
2024/01/07 08:02:18;;;;;;;17.00;7.90;;;;;;;14.58;60.35;100640.61;107103;1252;22542;-51
2024/01/07 08:04:45;;;;;;;21.60;9.40;;;;;;;14.58;60.37;100645.66;107111;1266;25337;-51
2024/01/07 08:07:12;;;;;;;19.90;8.80;;;;;;;14.60;60.35;100649.63;106940;1267;25571;-52
2024/01/07 08:09:39;;;;;;;19.90;8.80;;;;;;;14.60;60.34;100648.92;106788;1258;25337;-51
2024/01/07 08:12:06;;;;;;;23.10;9.00;;;;;;;14.61;60.35;100645.73;107120;1256;22522;-52
2024/01/07 08:14:33;;;;;;;17.00;8.00;;;;;;;14.62;60.21;100643.43;107056;1252;22645;-53
2024/01/07 08:17:00;;;;;;;18.60;9.90;;;;;;;14.61;60.10;100638.74;107149;1254;22523;-52
2024/01/07 08:19:27;;;;;;;20.20;9.50;;;;;;;14.60;60.11;100633.90;107100;1257;25325;-51
2024/01/07 08:21:56;;;;;;;17.00;8.20;;;;;;;14.60;60.06;100627.63;106997;1255;25414;-52
2024/01/07 08:24:23;;;;;;;16.70;7.40;;;;;;;14.58;60.05;100624.73;106825;1257;24152;-51
2024/01/07 08:26:51;;;;;;;15.40;7.80;;;;;;;14.57;60.05;100626.71;106856;1257;25413;-51
2024/01/07 08:29:18;;;;;;;17.70;7.60;;;;;;;14.57;60.20;100635.93;106881;1257;25370;-51
2024/01/07 08:31:45;;;;;;;18.10;6.70;;;;;;;14.58;60.19;100638.36;107087;1257;25407;-52
2024/01/07 08:34:14;;;;;;;14.30;6.10;;;;;;;14.59;60.24;100651.91;106028;1259;1003778;-52
2024/01/07 08:36:42;;;;;;;15.30;5.60;;;;;;;14.61;59.98;100659.70;106706;1275;25337;-51
2024/01/07 08:39:08;;;;;;;14.30;5.30;;;;;;;14.65;59.85;100658.84;106854;1259;25386;-52
2024/01/07 08:41:35;;;;;;;17.30;6.90;;;;;;;14.67;59.72;100656.30;107049;1266;25413;-53
2024/01/07 08:44:03;;;;;;;20.00;5.90;;;;;;;14.68;59.77;100659.05;106914;1257;25412;-52
2024/01/07 08:46:31;;;;;;;11.80;5.90;;;;;;;14.71;59.70;100668.75;106943;1256;25420;-52
2024/01/07 08:48:58;;;;;;;15.70;5.90;;;;;;;14.73;59.74;100669.54;106620;1259;22643;-52
2024/01/07 08:51:25;;;;;;;14.50;6.00;;;;;;;14.75;59.66;100664.58;106617;1258;22743;-52
2024/01/07 08:53:52;;;;;;;13.40;5.80;;;;;;;14.75;59.63;100660.55;106896;1257;25417;-52
2024/01/07 08:56:19;;;;;;;24.20;6.80;;;;;;;14.78;59.60;100652.77;106796;1256;24176;-53
2024/01/07 08:58:46;;;;;;;13.40;6.00;;;;;;;14.78;59.55;100643.30;106757;1259;22540;-52
2024/01/07 09:01:14;;;;;;;12.70;5.90;;;;;;;14.80;59.54;100634.69;106957;1256;23239;-52
2024/01/07 09:03:42;;;;;;;17.90;6.10;;;;;;;14.80;59.64;100630.14;106931;1254;25436;-52
2024/01/07 09:06:09;;;;;;;13.50;5.70;;;;;;;14.82;59.61;100622.02;107024;1270;24178;-53
2024/01/07 09:08:36;;;;;;;13.70;6.00;;;;;;;14.83;59.66;100613.95;106999;1263;23873;-53
2024/01/07 09:11:06;;;;;;;17.90;6.30;;;;;;;14.85;59.64;100603.92;106780;1257;25413;-53
2024/01/07 09:13:33;;;;;;;18.20;6.40;;;;;;;14.85;59.51;100596.58;106513;1272;24182;-53
2024/01/07 09:16:00;;;;;;;14.10;6.10;;;;;;;14.86;59.67;100580.33;106844;1256;25461;-52
2024/01/07 09:18:27;;;;;;;19.80;6.70;;;;;;;14.87;59.64;100567.00;106542;1262;25952;-52
2024/01/07 09:20:54;;;;;;;19.90;6.70;;;;;;;14.87;59.61;100548.80;106859;1258;25416;-52
2024/01/07 09:23:22;;;;;;;19.20;7.20;;;;;;;14.85;59.55;100528.98;106897;1257;25414;-52
2024/01/07 09:25:49;;;;;;;17.50;6.40;;;;;;;14.84;59.55;100516.14;106937;1255;22536;-53
2024/01/07 09:28:16;;;;;;;16.30;6.20;;;;;;;14.82;59.69;100523.36;106841;1267;24042;-54
2024/01/07 09:30:43;;;;;;;27.20;8.60;;;;;;;14.82;59.67;100550.97;106749;1254;22528;-52
2024/01/07 09:33:11;;;;;;;37.60;8.80;;;;;;;14.83;59.76;100549.67;106592;1261;24199;-53
2024/01/07 09:35:38;;;;;;;22.40;7.10;;;;;;;14.84;59.66;100548.97;106699;1272;25337;-52
2024/01/07 09:38:06;;;;;;;24.40;6.70;;;;;;;14.85;59.68;100567.41;106883;1257;24024;-53
2024/01/07 09:40:39;;;;;;;28.20;6.40;;;;;;;14.86;59.68;100569.48;106519;1265;24001;-52
2024/01/07 09:43:06;;;;;;;29.30;8.10;;;;;;;14.84;59.63;100558.90;106807;1256;23894;-53
2024/01/07 09:45:33;;;;;;;26.50;6.70;;;;;;;14.83;59.86;100564.71;106943;1250;22605;-53
2024/01/07 09:48:01;;;;;;;24.50;7.10;;;;;;;14.83;60.08;100567.31;106591;1259;25900;-53
2024/01/07 09:50:28;;;;;;;21.70;6.50;;;;;;;14.87;60.21;100565.76;106904;1256;25410;-53
2024/01/07 09:52:58;;;;;;;21.50;7.00;;;;;;;14.92;60.28;100554.20;106892;1257;25419;-53
2024/01/07 09:55:29;;;;;;;19.20;5.20;;;;;;;14.97;60.32;100551.55;106975;1254;25413;-53
2024/01/07 09:57:56;;;;;;;19.00;6.30;;;;;;;15.00;60.30;100545.97;106813;1259;24136;-53
2024/01/07 10:00:26;;;;;;;24.10;7.50;;;;;;;15.04;60.40;100543.19;106696;1266;24223;-53
2024/01/07 10:02:54;;;;;;;26.10;6.80;;;;;;;15.08;60.30;100547.03;106723;1257;25496;-52
2024/01/07 10:05:21;;;;;;;22.00;6.40;;;;;;;15.12;60.38;100544.22;106480;1275;25316;-53
2024/01/07 10:07:48;;;;;;;17.90;6.40;;;;;;;15.16;60.30;100537.58;106432;1267;25584;-53
2024/01/07 10:10:16;;;;;;;22.10;5.90;;;;;;;15.20;60.27;100530.42;106580;1262;22523;-53
2024/01/07 10:12:48;;;;;;;20.50;6.70;;;;;;;15.23;60.19;100530.80;106578;1270;22530;-53
2024/01/07 10:15:15;;;;;;;21.50;6.10;;;;;;;15.26;60.26;100524.71;106746;1270;25397;-53
2024/01/07 10:17:42;;;;;;;23.60;6.60;;;;;;;15.30;60.17;100515.13;106859;1271;26864;-53
2024/01/07 10:20:10;;;;;;;20.40;6.20;;;;;;;15.32;60.13;100508.04;106651;1278;22540;-52
2024/01/07 10:22:38;;;;;;;16.90;5.90;;;;;;;15.32;59.94;100495.61;106320;1262;25825;-52
2024/01/07 10:25:06;;;;;;;16.40;5.80;;;;;;;15.31;59.88;100488.13;106299;1275;26674;-52
2024/01/07 10:27:35;;;;;;;15.20;5.80;;;;;;;15.31;59.86;100487.26;106392;1272;24251;-52
2024/01/07 10:30:03;;;;;;;12.50;5.40;;;;;;;15.31;59.96;100481.50;106401;1278;22538;-52
2024/01/07 10:32:30;;;;;;;14.20;5.80;;;;;;;15.32;59.86;100471.31;106249;1275;25539;-52
2024/01/07 10:35:02;;;;;;;13.60;5.10;;;;;;;15.34;59.86;100460.72;106170;1278;25867;-52
2024/01/07 10:37:31;;;;;;;14.90;5.20;;;;;;;15.36;59.88;100457.31;106576;1271;22655;-52
2024/01/07 10:40:03;;;;;;;17.80;6.70;;;;;;;15.38;59.84;100463.18;106637;1270;22984;-52
2024/01/07 10:42:32;;;;;;;20.30;6.50;;;;;;;15.40;59.79;100473.03;106704;1259;26108;-52
2024/01/07 10:45:00;;;;;;;15.50;6.30;;;;;;;15.41;59.78;100471.76;106592;1270;22533;-53
2024/01/07 10:47:31;;;;;;;29.40;7.20;;;;;;;15.40;59.62;100466.73;105908;1265;1002477;-52
2024/01/07 10:49:58;;;;;;;18.10;5.40;;;;;;;15.39;59.64;100462.98;106463;1261;22580;-52
2024/01/07 10:52:27;;;;;;;19.70;6.90;;;;;;;15.37;59.67;100457.80;106696;1267;22535;-52
2024/01/07 10:54:57;;;;;;;17.90;5.90;;;;;;;15.36;59.81;100445.44;106569;1261;24215;-52
2024/01/07 10:57:44;;;;;;;13.30;5.30;;;;;;;15.37;59.87;100442.58;106430;1260;26499;-52
2024/01/07 11:00:18;;;;;;;17.80;5.50;;;;;;;15.40;60.01;100440.55;106652;1257;25539;-52
2024/01/07 11:02:58;;;;;;;16.80;5.60;;;;;;;15.42;59.89;100445.34;106497;1275;23909;-52
2024/01/07 11:05:34;;;;;;;18.40;6.00;;;;;;;15.44;59.85;100445.97;106588;1262;25411;-52
2024/01/07 11:08:05;;;;;;;26.20;6.60;;;;;;;15.46;59.84;100441.86;106542;1274;25364;-52